Dripping Springs' Hourly Summary for Thursday, April 20, 2017
Hour Temp
(f)
RH
(%)
Solar Rad.
(MJ/m2)
Rainfall
(in)
Wind
(mph)
4/20/2017 12:00 AM 68 99 0 0 5.19
4/20/2017 1:00 AM 68 100 0 0 5.75
4/20/2017 2:00 AM 67 100 0 0 6.5
4/20/2017 3:00 AM 67 100 0 0 6.95
4/20/2017 4:00 AM 66 100 0 0 5.48
4/20/2017 5:00 AM 66 100 0 0 5.17
4/20/2017 6:00 AM 66 100 0 0 4.71
4/20/2017 7:00 AM 66 100 0 0 3.5
4/20/2017 8:00 AM 67 100 0.04 0 3.73
4/20/2017 9:00 AM 68 100 0.17 0 3.88
4/20/2017 10:00 AM 69 100 0.46 0 4.76
4/20/2017 11:00 AM 71 99 0.65 0 4.19
4/20/2017 12:00 PM 72 97 1.34 0 5.74
4/20/2017 1:00 PM 75 80 2.62 0 6.84
4/20/2017 2:00 PM 77 71 2.74 0 7.14
4/20/2017 3:00 PM 80 61 2.55 0 6.44
4/20/2017 4:00 PM 81 60 2.31 0 7.13
4/20/2017 5:00 PM 81 55 1.48 0 6.84
4/20/2017 6:00 PM 82 56 1.3 0 6.46
4/20/2017 7:00 PM 81 55 0.57 0 6.21
4/20/2017 8:00 PM 78 64 0.13 0 5.29
4/20/2017 9:00 PM 75 74 0 0 3.96
4/20/2017 10:00 PM 73 83 0 0 4.62
4/20/2017 11:00 PM 72 84 0 0 6.43
Data Summary 72 84 16.36 0.00 5.54